sensor_id;sensor_type;location;lat;lon;timestamp;temperature;humidity
55026;DHT22;40925;45.666;18.994;2024-02-04T00:01:47;180.00;2252.80
55026;DHT22;40925;45.666;18.994;2024-02-04T00:04:12;180.00;2252.80
55026;DHT22;40925;45.666;18.994;2024-02-04T00:06:41;180.00;2252.80
55026;DHT22;40925;45.666;18.994;2024-02-04T00:09:07;180.00;2252.80
55026;DHT22;40925;45.666;18.994;2024-02-04T00:11:33;180.00;2252.80
55026;DHT22;40925;45.666;18.994;2024-02-04T00:14:00;180.10;2252.80
55026;DHT22;40925;45.666;18.994;2024-02-04T00:16:26;180.10;2252.80
55026;DHT22;40925;45.666;18.994;2024-02-04T00:18:52;180.10;2252.80
55026;DHT22;40925;45.666;18.994;2024-02-04T00:21:18;180.10;2252.80
55026;DHT22;40925;45.666;18.994;2024-02-04T00:23:47;180.10;2252.80
55026;DHT22;40925;45.666;18.994;2024-02-04T00:26:12;180.10;2252.80
55026;DHT22;40925;45.666;18.994;2024-02-04T00:28:38;180.10;2252.80
55026;DHT22;40925;45.666;18.994;2024-02-04T00:31:05;180.10;2252.80
55026;DHT22;40925;45.666;18.994;2024-02-04T00:33:31;180.10;2252.80
55026;DHT22;40925;45.666;18.994;2024-02-04T00:35:56;180.10;2252.80
55026;DHT22;40925;45.666;18.994;2024-02-04T00:38:22;180.10;2252.80
55026;DHT22;40925;45.666;18.994;2024-02-04T00:40:48;180.10;2252.80
55026;DHT22;40925;45.666;18.994;2024-02-04T00:43:14;180.00;2252.80
55026;DHT22;40925;45.666;18.994;2024-02-04T00:45:39;180.00;2252.80
55026;DHT22;40925;45.666;18.994;2024-02-04T00:48:05;180.00;2252.80
55026;DHT22;40925;45.666;18.994;2024-02-04T00:50:32;180.00;2252.80
55026;DHT22;40925;45.666;18.994;2024-02-04T00:52:57;180.00;2252.80
55026;DHT22;40925;45.666;18.994;2024-02-04T00:55:23;180.00;2252.80
55026;DHT22;40925;45.666;18.994;2024-02-04T00:57:52;180.00;2252.80
55026;DHT22;40925;45.666;18.994;2024-02-04T01:00:21;180.00;2252.80
55026;DHT22;40925;45.666;18.994;2024-02-04T01:02:47;180.00;2252.80
55026;DHT22;40925;45.666;18.994;2024-02-04T01:05:12;180.00;2252.80
55026;DHT22;40925;45.666;18.994;2024-02-04T01:07:40;179.90;2252.80
55026;DHT22;40925;45.666;18.994;2024-02-04T01:10:06;179.90;2252.80
55026;DHT22;40925;45.666;18.994;2024-02-04T01:12:31;180.00;2252.80
55026;DHT22;40925;45.666;18.994;2024-02-04T01:14:57;180.00;2252.80
55026;DHT22;40925;45.666;18.994;2024-02-04T01:17:23;179.90;2252.80
55026;DHT22;40925;45.666;18.994;2024-02-04T01:19:49;179.90;2252.80
55026;DHT22;40925;45.666;18.994;2024-02-04T01:22:17;179.90;2252.80
55026;DHT22;40925;45.666;18.994;2024-02-04T01:24:43;179.90;2252.80
55026;DHT22;40925;45.666;18.994;2024-02-04T01:27:09;179.90;2252.80
55026;DHT22;40925;45.666;18.994;2024-02-04T01:29:35;179.90;2252.80
55026;DHT22;40925;45.666;18.994;2024-02-04T01:32:01;179.90;2252.80
55026;DHT22;40925;45.666;18.994;2024-02-04T01:34:26;180.00;2252.80
55026;DHT22;40925;45.666;18.994;2024-02-04T01:36:52;179.90;2252.80
55026;DHT22;40925;45.666;18.994;2024-02-04T01:39:17;179.90;2252.80
55026;DHT22;40925;45.666;18.994;2024-02-04T01:41:43;179.90;2252.80
55026;DHT22;40925;45.666;18.994;2024-02-04T01:44:11;179.90;2252.80
55026;DHT22;40925;45.666;18.994;2024-02-04T01:46:36;179.90;2252.80
55026;DHT22;40925;45.666;18.994;2024-02-04T01:49:02;179.80;2252.80
55026;DHT22;40925;45.666;18.994;2024-02-04T01:51:28;179.70;2252.80
55026;DHT22;40925;45.666;18.994;2024-02-04T01:53:54;179.60;2252.80
55026;DHT22;40925;45.666;18.994;2024-02-04T01:56:19;179.60;2252.80
55026;DHT22;40925;45.666;18.994;2024-02-04T01:58:46;179.50;2252.80
55026;DHT22;40925;45.666;18.994;2024-02-04T02:01:14;179.50;2252.80
55026;DHT22;40925;45.666;18.994;2024-02-04T02:03:40;179.70;2252.80
55026;DHT22;40925;45.666;18.994;2024-02-04T02:06:06;179.60;2252.80
55026;DHT22;40925;45.666;18.994;2024-02-04T02:08:32;179.60;2252.80
55026;DHT22;40925;45.666;18.994;2024-02-04T02:11:12;179.50;2252.80
55026;DHT22;40925;45.666;18.994;2024-02-04T02:13:47;179.50;2252.80
55026;DHT22;40925;45.666;18.994;2024-02-04T02:16:18;179.50;2252.80
55026;DHT22;40925;45.666;18.994;2024-02-04T02:18:49;179.50;2252.80
55026;DHT22;40925;45.666;18.994;2024-02-04T02:21:44;179.60;2252.80
55026;DHT22;40925;45.666;18.994;2024-02-04T02:24:27;179.70;2252.80
55026;DHT22;40925;45.666;18.994;2024-02-04T02:26:53;179.80;2252.80
55026;DHT22;40925;45.666;18.994;2024-02-04T02:29:22;179.80;2252.80
55026;DHT22;40925;45.666;18.994;2024-02-04T02:31:48;179.90;2252.80
55026;DHT22;40925;45.666;18.994;2024-02-04T02:34:13;179.90;2252.80
55026;DHT22;40925;45.666;18.994;2024-02-04T02:37:03;179.90;2252.80
55026;DHT22;40925;45.666;18.994;2024-02-04T02:39:47;180.00;2252.80
55026;DHT22;40925;45.666;18.994;2024-02-04T02:42:15;180.10;2252.80
55026;DHT22;40925;45.666;18.994;2024-02-04T02:44:43;180.10;2252.80
55026;DHT22;40925;45.666;18.994;2024-02-04T02:47:10;204.80;2252.80
55026;DHT22;40925;45.666;18.994;2024-02-04T02:49:37;204.80;2252.80
55026;DHT22;40925;45.666;18.994;2024-02-04T02:52:03;204.80;2252.80
55026;DHT22;40925;45.666;18.994;2024-02-04T02:54:29;204.80;2252.80
55026;DHT22;40925;45.666;18.994;2024-02-04T02:56:55;204.80;2252.80
55026;DHT22;40925;45.666;18.994;2024-02-04T02:59:21;204.80;2252.80
55026;DHT22;40925;45.666;18.994;2024-02-04T03:01:46;204.80;2252.80
55026;DHT22;40925;45.666;18.994;2024-02-04T03:04:15;204.80;2252.80
55026;DHT22;40925;45.666;18.994;2024-02-04T03:06:41;204.80;2252.80
55026;DHT22;40925;45.666;18.994;2024-02-04T03:09:06;204.80;2252.80
55026;DHT22;40925;45.666;18.994;2024-02-04T03:11:32;204.80;2252.80
55026;DHT22;40925;45.666;18.994;2024-02-04T03:13:58;204.90;2252.80
55026;DHT22;40925;45.666;18.994;2024-02-04T03:16:23;204.90;2252.80
55026;DHT22;40925;45.666;18.994;2024-02-04T03:18:49;204.90;2252.80
55026;DHT22;40925;45.666;18.994;2024-02-04T03:21:16;204.90;2252.80
55026;DHT22;40925;45.666;18.994;2024-02-04T03:23:42;204.90;2252.80
55026;DHT22;40925;45.666;18.994;2024-02-04T03:26:11;204.90;2252.80
55026;DHT22;40925;45.666;18.994;2024-02-04T03:28:37;204.90;2252.80
55026;DHT22;40925;45.666;18.994;2024-02-04T03:31:03;204.90;2252.80
55026;DHT22;40925;45.666;18.994;2024-02-04T03:33:29;204.90;2252.80
55026;DHT22;40925;45.666;18.994;2024-02-04T03:35:55;204.90;2252.80
55026;DHT22;40925;45.666;18.994;2024-02-04T03:38:21;204.90;2252.80
55026;DHT22;40925;45.666;18.994;2024-02-04T03:40:47;204.90;2252.80
55026;DHT22;40925;45.666;18.994;2024-02-04T03:43:14;204.90;2252.80
55026;DHT22;40925;45.666;18.994;2024-02-04T03:45:40;204.90;2252.80
55026;DHT22;40925;45.666;18.994;2024-02-04T03:48:06;204.90;2252.80
55026;DHT22;40925;45.666;18.994;2024-02-04T03:50:32;204.90;2252.80
55026;DHT22;40925;45.666;18.994;2024-02-04T03:52:58;204.90;2252.80
55026;DHT22;40925;45.666;18.994;2024-02-04T03:55:23;204.90;2252.80
55026;DHT22;40925;45.666;18.994;2024-02-04T03:57:49;205.00;2252.80
55026;DHT22;40925;45.666;18.994;2024-02-04T04:00:15;204.90;2252.80
55026;DHT22;40925;45.666;18.994;2024-02-04T04:02:41;204.90;2252.80
55026;DHT22;40925;45.666;18.994;2024-02-04T04:05:13;204.80;2252.80
55026;DHT22;40925;45.666;18.994;2024-02-04T04:07:40;205.00;2252.80
55026;DHT22;40925;45.666;18.994;2024-02-04T04:10:06;205.00;2252.80
55026;DHT22;40925;45.666;18.994;2024-02-04T04:12:32;205.00;2252.80
55026;DHT22;40925;45.666;18.994;2024-02-04T04:14:58;205.00;2252.80
55026;DHT22;40925;45.666;18.994;2024-02-04T04:17:26;205.00;2252.80
55026;DHT22;40925;45.666;18.994;2024-02-04T04:19:52;205.00;2252.80
55026;DHT22;40925;45.666;18.994;2024-02-04T04:22:18;205.10;2252.80
55026;DHT22;40925;45.666;18.994;2024-02-04T04:24:43;205.00;2252.80
55026;DHT22;40925;45.666;18.994;2024-02-04T04:27:12;205.00;2252.80
55026;DHT22;40925;45.666;18.994;2024-02-04T04:29:41;204.90;2252.80
55026;DHT22;40925;45.666;18.994;2024-02-04T04:32:07;204.90;2252.80
55026;DHT22;40925;45.666;18.994;2024-02-04T04:34:32;204.90;2252.80
55026;DHT22;40925;45.666;18.994;2024-02-04T04:36:58;204.80;2252.80
55026;DHT22;40925;45.666;18.994;2024-02-04T04:39:27;204.80;2252.80
55026;DHT22;40925;45.666;18.994;2024-02-04T04:41:52;204.80;2252.80
55026;DHT22;40925;45.666;18.994;2024-02-04T04:44:18;204.80;2252.80
55026;DHT22;40925;45.666;18.994;2024-02-04T04:46:44;204.80;2252.80
55026;DHT22;40925;45.666;18.994;2024-02-04T04:49:09;204.80;2252.80
55026;DHT22;40925;45.666;18.994;2024-02-04T04:51:35;204.90;2252.80
55026;DHT22;40925;45.666;18.994;2024-02-04T04:54:01;204.90;2252.80
55026;DHT22;40925;45.666;18.994;2024-02-04T04:56:26;204.90;2252.80
55026;DHT22;40925;45.666;18.994;2024-02-04T04:58:52;204.90;2252.80
55026;DHT22;40925;45.666;18.994;2024-02-04T05:01:18;205.00;2252.80
55026;DHT22;40925;45.666;18.994;2024-02-04T05:03:47;205.00;2252.80
55026;DHT22;40925;45.666;18.994;2024-02-04T05:06:13;205.10;2252.80
55026;DHT22;40925;45.666;18.994;2024-02-04T05:08:39;205.10;2252.80
55026;DHT22;40925;45.666;18.994;2024-02-04T05:11:05;205.10;2252.80
55026;DHT22;40925;45.666;18.994;2024-02-04T05:13:31;205.20;2252.80
55026;DHT22;40925;45.666;18.994;2024-02-04T05:15:56;205.20;2252.80
55026;DHT22;40925;45.666;18.994;2024-02-04T05:18:22;205.20;2252.80
55026;DHT22;40925;45.666;18.994;2024-02-04T05:20:52;205.30;2252.80
55026;DHT22;40925;45.666;18.994;2024-02-04T05:23:17;205.30;2252.80
55026;DHT22;40925;45.666;18.994;2024-02-04T05:25:46;205.30;2252.80
55026;DHT22;40925;45.666;18.994;2024-02-04T05:28:12;205.30;2252.80
55026;DHT22;40925;45.666;18.994;2024-02-04T05:30:38;205.30;2252.80
55026;DHT22;40925;45.666;18.994;2024-02-04T05:33:03;205.30;2252.80
55026;DHT22;40925;45.666;18.994;2024-02-04T05:35:29;205.30;2252.80
55026;DHT22;40925;45.666;18.994;2024-02-04T05:37:55;205.30;2252.80
55026;DHT22;40925;45.666;18.994;2024-02-04T05:40:24;205.20;2252.80
55026;DHT22;40925;45.666;18.994;2024-02-04T05:42:51;205.20;2252.80
55026;DHT22;40925;45.666;18.994;2024-02-04T05:45:19;205.20;2252.80
55026;DHT22;40925;45.666;18.994;2024-02-04T05:47:45;205.20;2252.80
55026;DHT22;40925;45.666;18.994;2024-02-04T05:50:10;205.30;2252.80
55026;DHT22;40925;45.666;18.994;2024-02-04T05:52:36;205.30;2252.80
55026;DHT22;40925;45.666;18.994;2024-02-04T05:55:02;205.30;2252.80
55026;DHT22;40925;45.666;18.994;2024-02-04T05:57:28;205.40;2252.80
55026;DHT22;40925;45.666;18.994;2024-02-04T05:59:53;205.40;2252.80
55026;DHT22;40925;45.666;18.994;2024-02-04T06:02:20;205.40;2252.80
55026;DHT22;40925;45.666;18.994;2024-02-04T06:04:46;205.30;2252.80
55026;DHT22;40925;45.666;18.994;2024-02-04T06:07:14;205.30;2252.80
55026;DHT22;40925;45.666;18.994;2024-02-04T06:09:40;205.30;2252.80
55026;DHT22;40925;45.666;18.994;2024-02-04T06:12:06;205.20;2252.80
55026;DHT22;40925;45.666;18.994;2024-02-04T06:14:33;205.20;2252.80
55026;DHT22;40925;45.666;18.994;2024-02-04T06:17:00;205.20;2252.80
55026;DHT22;40925;45.666;18.994;2024-02-04T06:19:26;205.30;2252.80
55026;DHT22;40925;45.666;18.994;2024-02-04T06:21:52;205.40;2252.80
55026;DHT22;40925;45.666;18.994;2024-02-04T06:24:18;205.30;2252.80
55026;DHT22;40925;45.666;18.994;2024-02-04T06:26:45;205.30;2252.80
55026;DHT22;40925;45.666;18.994;2024-02-04T06:29:12;205.30;2252.80
55026;DHT22;40925;45.666;18.994;2024-02-04T06:31:37;205.30;2252.80
55026;DHT22;40925;45.666;18.994;2024-02-04T06:34:03;205.40;2252.80
55026;DHT22;40925;45.666;18.994;2024-02-04T06:36:29;205.40;2252.80
55026;DHT22;40925;45.666;18.994;2024-02-04T06:38:54;205.40;2252.80
55026;DHT22;40925;45.666;18.994;2024-02-04T06:41:20;205.30;2252.80
55026;DHT22;40925;45.666;18.994;2024-02-04T06:43:46;205.30;2252.80
55026;DHT22;40925;45.666;18.994;2024-02-04T06:46:12;205.30;2252.80
55026;DHT22;40925;45.666;18.994;2024-02-04T06:48:38;205.30;2252.80
55026;DHT22;40925;45.666;18.994;2024-02-04T06:51:03;205.40;2252.80
55026;DHT22;40925;45.666;18.994;2024-02-04T06:53:29;205.40;2252.80
55026;DHT22;40925;45.666;18.994;2024-02-04T06:55:55;205.40;2252.80
55026;DHT22;40925;45.666;18.994;2024-02-04T06:58:20;205.30;2252.80
55026;DHT22;40925;45.666;18.994;2024-02-04T07:00:46;205.30;2252.80
55026;DHT22;40925;45.666;18.994;2024-02-04T07:03:12;205.30;2252.80
55026;DHT22;40925;45.666;18.994;2024-02-04T07:05:38;205.30;2252.80
55026;DHT22;40925;45.666;18.994;2024-02-04T07:08:03;205.40;2252.80
55026;DHT22;40925;45.666;18.994;2024-02-04T07:10:31;205.50;2252.80
55026;DHT22;40925;45.666;18.994;2024-02-04T07:12:56;205.60;2252.80
55026;DHT22;40925;45.666;18.994;2024-02-04T07:15:22;230.50;2252.80
55026;DHT22;40925;45.666;18.994;2024-02-04T07:17:48;256.60;2252.80
55026;DHT22;40925;45.666;18.994;2024-02-04T07:20:14;307.80;2304.00
55026;DHT22;40925;45.666;18.994;2024-02-04T07:22:43;359.10;2278.40
55026;DHT22;40925;45.666;18.994;2024-02-04T07:25:09;435.20;1920.00
55026;DHT22;40925;45.666;18.994;2024-02-04T07:27:34;461.50;1766.40
55026;DHT22;40925;45.666;18.994;2024-02-04T07:30:00;487.30;1587.20
55026;DHT22;40925;45.666;18.994;2024-02-04T07:32:26;435.50;1766.40
55026;DHT22;40925;45.666;18.994;2024-02-04T07:34:52;384.20;1817.60
55026;DHT22;40925;45.666;18.994;2024-02-04T07:37:17;358.50;1996.80
55026;DHT22;40925;45.666;18.994;2024-02-04T07:39:43;409.90;1996.80
55026;DHT22;40925;45.666;18.994;2024-02-04T07:42:09;486.40;1664.00
55026;DHT22;40925;45.666;18.994;2024-02-04T07:44:34;512.80;1510.40
55026;DHT22;40925;45.666;18.994;2024-02-04T07:47:00;563.80;1408.00
55026;DHT22;40925;45.666;18.994;2024-02-04T07:49:27;537.90;1408.00
55026;DHT22;40925;45.666;18.994;2024-02-04T07:51:53;512.20;1433.60
55026;DHT22;40925;45.666;18.994;2024-02-04T07:54:19;460.80;1587.20
55026;DHT22;40925;45.666;18.994;2024-02-04T07:56:45;461.30;1612.80
55026;DHT22;40925;45.666;18.994;2024-02-04T07:59:10;512.80;1408.00
55026;DHT22;40925;45.666;18.994;2024-02-04T08:01:36;563.80;1382.40
55026;DHT22;40925;45.666;18.994;2024-02-04T08:04:02;614.70;1305.60
55026;DHT22;40925;45.666;18.994;2024-02-04T08:06:31;640.30;1203.20
55026;DHT22;40925;45.666;18.994;2024-02-04T08:08:59;640.90;1152.00
55026;DHT22;40925;45.666;18.994;2024-02-04T08:11:25;589.20;1228.80
55026;DHT22;40925;45.666;18.994;2024-02-04T08:13:51;563.70;1356.80
55026;DHT22;40925;45.666;18.994;2024-02-04T08:16:16;512.40;1382.40
55026;DHT22;40925;45.666;18.994;2024-02-04T08:18:42;512.20;1382.40
55026;DHT22;40925;45.666;18.994;2024-02-04T08:21:08;538.10;1356.80
55026;DHT22;40925;45.666;18.994;2024-02-04T08:23:33;589.00;1331.20
55026;DHT22;40925;45.666;18.994;2024-02-04T08:25:59;588.80;1305.60
55026;DHT22;40925;45.666;18.994;2024-02-04T08:28:25;589.60;1228.80
55026;DHT22;40925;45.666;18.994;2024-02-04T08:30:51;589.20;1254.40
55026;DHT22;40925;45.666;18.994;2024-02-04T08:33:16;614.40;1228.80
55026;DHT22;40925;45.666;18.994;2024-02-04T08:35:43;614.80;1203.20
55026;DHT22;40925;45.666;18.994;2024-02-04T08:38:09;640.40;1177.60
55026;DHT22;40925;45.666;18.994;2024-02-04T08:40:34;665.80;1100.80
55026;DHT22;40925;45.666;18.994;2024-02-04T08:43:00;665.90;1126.40
55026;DHT22;40925;45.666;18.994;2024-02-04T08:45:26;640.80;1075.20
55026;DHT22;40925;45.666;18.994;2024-02-04T08:47:52;665.70;1100.80
55026;DHT22;40925;45.666;18.994;2024-02-04T08:50:18;666.10;1075.20
55026;DHT22;40925;45.666;18.994;2024-02-04T08:52:44;666.40;1075.20
55026;DHT22;40925;45.666;18.994;2024-02-04T08:55:09;666.20;1100.80
55026;DHT22;40925;45.666;18.994;2024-02-04T08:57:35;665.80;1126.40
55026;DHT22;40925;45.666;18.994;2024-02-04T09:00:01;666.20;1100.80
55026;DHT22;40925;45.666;18.994;2024-02-04T09:02:26;640.20;1126.40
55026;DHT22;40925;45.666;18.994;2024-02-04T09:04:52;589.60;1177.60
55026;DHT22;40925;45.666;18.994;2024-02-04T09:07:18;564.00;1254.40
55026;DHT22;40925;45.666;18.994;2024-02-04T09:09:44;563.80;1305.60
55026;DHT22;40925;45.666;18.994;2024-02-04T09:12:09;563.20;1331.20
55026;DHT22;40925;45.666;18.994;2024-02-04T09:14:35;537.80;1331.20
55026;DHT22;40925;45.666;18.994;2024-02-04T09:17:05;512.40;1382.40
55026;DHT22;40925;45.666;18.994;2024-02-04T09:19:32;512.00;1408.00
55026;DHT22;40925;45.666;18.994;2024-02-04T09:21:57;487.00;1433.60
55026;DHT22;40925;45.666;18.994;2024-02-04T09:24:23;486.90;1433.60
55026;DHT22;40925;45.666;18.994;2024-02-04T09:26:49;486.70;1433.60
55026;DHT22;40925;45.666;18.994;2024-02-04T09:29:15;486.60;1484.80
55026;DHT22;40925;45.666;18.994;2024-02-04T09:31:40;486.40;1484.80
55026;DHT22;40925;45.666;18.994;2024-02-04T09:34:06;486.40;1536.00
55026;DHT22;40925;45.666;18.994;2024-02-04T09:36:32;461.70;1536.00
55026;DHT22;40925;45.666;18.994;2024-02-04T09:38:57;461.70;1536.00
55026;DHT22;40925;45.666;18.994;2024-02-04T09:41:23;461.60;1536.00
55026;DHT22;40925;45.666;18.994;2024-02-04T09:43:50;461.50;1510.40
55026;DHT22;40925;45.666;18.994;2024-02-04T09:46:17;461.50;1510.40
55026;DHT22;40925;45.666;18.994;2024-02-04T09:48:45;461.40;1510.40
55026;DHT22;40925;45.666;18.994;2024-02-04T09:51:11;460.90;1612.80
55026;DHT22;40925;45.666;18.994;2024-02-04T09:53:41;436.10;1587.20
55026;DHT22;40925;45.666;18.994;2024-02-04T09:56:09;436.10;1612.80
55026;DHT22;40925;45.666;18.994;2024-02-04T09:58:36;436.00;1638.40
55026;DHT22;40925;45.666;18.994;2024-02-04T10:01:03;436.10;1561.60
55026;DHT22;40925;45.666;18.994;2024-02-04T10:03:29;460.80;1587.20
55026;DHT22;40925;45.666;18.994;2024-02-04T10:05:56;460.80;1561.60
55026;DHT22;40925;45.666;18.994;2024-02-04T10:08:22;436.00;1561.60
55026;DHT22;40925;45.666;18.994;2024-02-04T10:10:48;436.00;1587.20
55026;DHT22;40925;45.666;18.994;2024-02-04T10:13:14;461.10;1587.20
55026;DHT22;40925;45.666;18.994;2024-02-04T10:15:39;461.50;1561.60
55026;DHT22;40925;45.666;18.994;2024-02-04T10:18:08;461.50;1536.00
55026;DHT22;40925;45.666;18.994;2024-02-04T10:20:35;486.60;1536.00
55026;DHT22;40925;45.666;18.994;2024-02-04T10:23:01;486.70;1510.40
55026;DHT22;40925;45.666;18.994;2024-02-04T10:25:27;486.90;1484.80
55026;DHT22;40925;45.666;18.994;2024-02-04T10:27:53;487.10;1459.20
55026;DHT22;40925;45.666;18.994;2024-02-04T10:30:20;487.00;1484.80
55026;DHT22;40925;45.666;18.994;2024-02-04T10:32:47;512.50;1433.60
55026;DHT22;40925;45.666;18.994;2024-02-04T10:35:13;537.80;1408.00
55026;DHT22;40925;45.666;18.994;2024-02-04T10:37:39;512.90;1356.80
55026;DHT22;40925;45.666;18.994;2024-02-04T10:40:05;512.80;1382.40
55026;DHT22;40925;45.666;18.994;2024-02-04T10:42:31;487.30;1433.60
55026;DHT22;40925;45.666;18.994;2024-02-04T10:44:58;512.10;1433.60
55026;DHT22;40925;45.666;18.994;2024-02-04T10:47:30;512.00;1433.60
55026;DHT22;40925;45.666;18.994;2024-02-04T10:49:58;512.10;1433.60
55026;DHT22;40925;45.666;18.994;2024-02-04T10:52:27;512.10;1433.60
55026;DHT22;40925;45.666;18.994;2024-02-04T10:54:53;512.50;1433.60
55026;DHT22;40925;45.666;18.994;2024-02-04T10:57:22;512.90;1382.40
55026;DHT22;40925;45.666;18.994;2024-02-04T10:59:52;537.70;1408.00
55026;DHT22;40925;45.666;18.994;2024-02-04T11:02:19;512.80;1408.00
55026;DHT22;40925;45.666;18.994;2024-02-04T11:04:48;537.90;1408.00
55026;DHT22;40925;45.666;18.994;2024-02-04T11:07:15;538.30;1382.40
55026;DHT22;40925;45.666;18.994;2024-02-04T11:09:45;563.30;1408.00
55026;DHT22;40925;45.666;18.994;2024-02-04T11:12:17;563.50;1382.40
55026;DHT22;40925;45.666;18.994;2024-02-04T11:14:46;563.50;1382.40
55026;DHT22;40925;45.666;18.994;2024-02-04T11:25:57;563.90;1356.80
55026;DHT22;40925;45.666;18.994;2024-02-04T11:28:24;564.00;1331.20
55026;DHT22;40925;45.666;18.994;2024-02-04T11:30:51;563.60;1356.80
55026;DHT22;40925;45.666;18.994;2024-02-04T11:33:18;538.20;1356.80
55026;DHT22;40925;45.666;18.994;2024-02-04T11:35:44;538.10;1382.40
55026;DHT22;40925;45.666;18.994;2024-02-04T11:38:10;537.90;1382.40
55026;DHT22;40925;45.666;18.994;2024-02-04T11:40:41;538.30;1356.80
55026;DHT22;40925;45.666;18.994;2024-02-04T11:43:10;563.40;1356.80
55026;DHT22;40925;45.666;18.994;2024-02-04T11:45:41;563.70;1356.80
55026;DHT22;40925;45.666;18.994;2024-02-04T11:48:07;564.00;1331.20
55026;DHT22;40925;45.666;18.994;2024-02-04T11:50:34;564.00;1331.20
55026;DHT22;40925;45.666;18.994;2024-02-04T11:53:10;563.70;1356.80
55026;DHT22;40925;45.666;18.994;2024-02-04T11:55:38;563.40;1356.80
55026;DHT22;40925;45.666;18.994;2024-02-04T11:58:05;538.20;1356.80
55026;DHT22;40925;45.666;18.994;2024-02-04T12:00:42;563.30;1382.40
55026;DHT22;40925;45.666;18.994;2024-02-04T12:03:09;563.30;1382.40
55026;DHT22;40925;45.666;18.994;2024-02-04T12:05:36;538.20;1356.80
55026;DHT22;40925;45.666;18.994;2024-02-04T12:08:07;538.10;1356.80
55026;DHT22;40925;45.666;18.994;2024-02-04T12:10:34;563.40;1382.40
55026;DHT22;40925;45.666;18.994;2024-02-04T12:13:05;538.50;1356.80
55026;DHT22;40925;45.666;18.994;2024-02-04T12:15:33;537.70;1408.00
55026;DHT22;40925;45.666;18.994;2024-02-04T12:18:06;512.80;1408.00
55026;DHT22;40925;45.666;18.994;2024-02-04T12:20:32;512.10;1459.20
55026;DHT22;40925;45.666;18.994;2024-02-04T12:22:58;486.70;1510.40
55026;DHT22;40925;45.666;18.994;2024-02-04T12:25:24;486.60;1536.00
55026;DHT22;40925;45.666;18.994;2024-02-04T12:27:53;487.00;1510.40
55026;DHT22;40925;45.666;18.994;2024-02-04T12:30:18;486.90;1510.40
55026;DHT22;40925;45.666;18.994;2024-02-04T12:32:44;487.00;1510.40
55026;DHT22;40925;45.666;18.994;2024-02-04T12:35:16;486.90;1536.00
55026;DHT22;40925;45.666;18.994;2024-02-04T12:37:52;486.70;1561.60
55026;DHT22;40925;45.666;18.994;2024-02-04T12:40:28;486.40;1536.00
55026;DHT22;40925;45.666;18.994;2024-02-04T12:45:23;461.50;1561.60
55026;DHT22;40925;45.666;18.994;2024-02-04T12:47:55;461.10;1587.20
55026;DHT22;40925;45.666;18.994;2024-02-04T12:50:25;461.00;1587.20
55026;DHT22;40925;45.666;18.994;2024-02-04T12:53:08;461.00;1587.20
55026;DHT22;40925;45.666;18.994;2024-02-04T12:55:37;460.80;1638.40
55026;DHT22;40925;45.666;18.994;2024-02-04T12:58:07;436.00;1587.20
55026;DHT22;40925;45.666;18.994;2024-02-04T13:00:34;436.00;1612.80
55026;DHT22;40925;45.666;18.994;2024-02-04T13:03:01;436.00;1612.80
55026;DHT22;40925;45.666;18.994;2024-02-04T13:05:27;435.90;1612.80
55026;DHT22;40925;45.666;18.994;2024-02-04T13:07:59;435.80;1587.20
55026;DHT22;40925;45.666;18.994;2024-02-04T13:10:31;460.80;1587.20
55026;DHT22;40925;45.666;18.994;2024-02-04T13:13:03;461.40;1561.60
55026;DHT22;40925;45.666;18.994;2024-02-04T13:15:32;461.20;1561.60
55026;DHT22;40925;45.666;18.994;2024-02-04T13:17:58;461.00;1587.20
55026;DHT22;40925;45.666;18.994;2024-02-04T13:20:25;460.80;1587.20
55026;DHT22;40925;45.666;18.994;2024-02-04T13:22:50;436.10;1561.60
55026;DHT22;40925;45.666;18.994;2024-02-04T13:25:20;436.00;1561.60
55026;DHT22;40925;45.666;18.994;2024-02-04T13:27:46;436.10;1561.60
55026;DHT22;40925;45.666;18.994;2024-02-04T13:30:12;436.00;1587.20
55026;DHT22;40925;45.666;18.994;2024-02-04T13:32:42;435.90;1587.20
55026;DHT22;40925;45.666;18.994;2024-02-04T13:35:09;435.80;1612.80
55026;DHT22;40925;45.666;18.994;2024-02-04T13:37:46;435.50;1689.60
55026;DHT22;40925;45.666;18.994;2024-02-04T13:40:14;435.20;1971.20
55026;DHT22;40925;45.666;18.994;2024-02-04T13:42:40;435.20;1715.20
55026;DHT22;40925;45.666;18.994;2024-02-04T13:45:06;435.20;1715.20
55026;DHT22;40925;45.666;18.994;2024-02-04T13:47:32;410.50;1740.80
55026;DHT22;40925;45.666;18.994;2024-02-04T13:49:58;410.50;1715.20
55026;DHT22;40925;45.666;18.994;2024-02-04T13:52:24;410.30;1766.40
55026;DHT22;40925;45.666;18.994;2024-02-04T13:54:49;410.20;1766.40
55026;DHT22;40925;45.666;18.994;2024-02-04T13:57:15;410.20;1766.40
55026;DHT22;40925;45.666;18.994;2024-02-04T13:59:41;410.30;1766.40
55026;DHT22;40925;45.666;18.994;2024-02-04T14:02:07;435.50;1715.20
55026;DHT22;40925;45.666;18.994;2024-02-04T14:04:37;435.70;1638.40
55026;DHT22;40925;45.666;18.994;2024-02-04T14:07:02;435.80;1638.40
55026;DHT22;40925;45.666;18.994;2024-02-04T14:09:28;436.00;1612.80
55026;DHT22;40925;45.666;18.994;2024-02-04T14:11:54;460.80;1612.80
55026;DHT22;40925;45.666;18.994;2024-02-04T14:14:22;461.00;1587.20
55026;DHT22;40925;45.666;18.994;2024-02-04T14:16:49;461.00;1561.60
55026;DHT22;40925;45.666;18.994;2024-02-04T14:19:15;461.00;1536.00
55026;DHT22;40925;45.666;18.994;2024-02-04T14:21:41;461.00;1536.00
55026;DHT22;40925;45.666;18.994;2024-02-04T14:24:07;460.80;1536.00
55026;DHT22;40925;45.666;18.994;2024-02-04T14:26:32;460.80;1536.00
55026;DHT22;40925;45.666;18.994;2024-02-04T14:28:58;460.90;1536.00
55026;DHT22;40925;45.666;18.994;2024-02-04T14:31:24;460.90;1536.00
55026;DHT22;40925;45.666;18.994;2024-02-04T14:33:50;435.80;1561.60
55026;DHT22;40925;45.666;18.994;2024-02-04T14:36:16;435.90;1587.20
55026;DHT22;40925;45.666;18.994;2024-02-04T14:38:42;460.80;1587.20
55026;DHT22;40925;45.666;18.994;2024-02-04T14:41:08;460.80;1587.20
55026;DHT22;40925;45.666;18.994;2024-02-04T14:43:35;436.10;1587.20
55026;DHT22;40925;45.666;18.994;2024-02-04T14:46:01;461.00;1587.20